createdAt,value
2023-05-11T00:00:19.583Z,2.28
2023-05-11T00:02:49.200Z,3.90
2023-05-11T00:05:19.029Z,4.30
2023-05-11T00:07:48.242Z,2.38
2023-05-11T00:10:17.385Z,3.40
2023-05-11T00:12:46.810Z,4.18
2023-05-11T00:15:16.745Z,3.97
2023-05-11T00:17:46.678Z,3.90
2023-05-11T00:20:17.031Z,2.40
2023-05-11T00:22:51.039Z,2.30
2023-05-11T00:25:20.045Z,2.50
2023-05-11T00:27:49.474Z,2.35
2023-05-11T00:30:20.276Z,2.30
2023-05-11T00:32:49.824Z,2.65
2023-05-11T00:35:19.438Z,3.10
2023-05-11T00:37:49.131Z,4.07
2023-05-11T00:40:18.642Z,2.63
2023-05-11T00:42:47.359Z,4.43
2023-05-11T00:45:16.734Z,3.05
2023-05-11T00:47:46.711Z,3.35
2023-05-11T00:50:16.561Z,2.65
2023-05-11T00:52:46.746Z,2.17
2023-05-11T00:55:18.996Z,2.63
2023-05-11T00:57:48.460Z,3.42
2023-05-11T01:00:17.959Z,3.90
2023-05-11T01:02:48.319Z,3.70
2023-05-11T01:05:17.220Z,2.40
2023-05-11T01:08:10.210Z,3.10
2023-05-11T01:10:57.591Z,2.40
2023-05-11T01:13:43.526Z,3.05
2023-05-11T01:16:21.181Z,2.97
2023-05-11T01:19:07.873Z,2.65
2023-05-11T01:21:38.366Z,3.85
2023-05-11T01:24:23.397Z,2.85
2023-05-11T01:27:22.060Z,3.45
2023-05-11T01:30:06.286Z,3.13
2023-05-11T01:32:40.220Z,3.15
2023-05-11T01:35:19.003Z,5.75
2023-05-11T01:37:52.596Z,3.08
2023-05-11T01:40:25.621Z,3.33
2023-05-11T01:43:08.295Z,3.55
2023-05-11T01:45:45.212Z,2.50
2023-05-11T01:48:24.463Z,3.45
2023-05-11T01:50:54.900Z,2.90
2023-05-11T01:53:24.547Z,3.33
2023-05-11T01:55:57.060Z,2.50
2023-05-11T01:58:31.630Z,4.25
2023-05-11T02:01:04.234Z,2.67
2023-05-11T02:03:37.522Z,4.50
2023-05-11T02:06:08.917Z,2.88
2023-05-11T02:08:39.674Z,3.17
2023-05-11T02:11:12.025Z,3.95
2023-05-11T02:13:45.097Z,4.25
2023-05-11T02:16:19.979Z,2.40
2023-05-11T02:18:51.445Z,3.10
2023-05-11T02:21:21.497Z,3.63
2023-05-11T02:23:51.962Z,3.22
2023-05-11T02:26:21.086Z,2.80
2023-05-11T02:28:50.794Z,4.13
2023-05-11T02:31:26.466Z,3.33
2023-05-11T02:34:05.555Z,3.10
2023-05-11T02:36:39.130Z,4.95
2023-05-11T02:39:13.266Z,2.55
2023-05-11T02:41:46.412Z,2.78
2023-05-11T02:44:18.387Z,2.92
2023-05-11T02:46:50.130Z,2.60
2023-05-11T02:49:23.105Z,3.78
2023-05-11T02:51:53.511Z,6.28
2023-05-11T02:54:25.283Z,2.40
2023-05-11T02:56:59.823Z,2.45
2023-05-11T02:59:31.318Z,3.10
2023-05-11T03:02:01.835Z,3.40
2023-05-11T03:04:32.930Z,3.45
2023-05-11T03:07:02.190Z,2.83
2023-05-11T03:09:31.556Z,2.40
2023-05-11T03:12:03.574Z,2.60
2023-05-11T03:14:36.963Z,4.53
2023-05-11T03:17:08.961Z,3.80
2023-05-11T03:19:43.048Z,3.42
2023-05-11T03:22:16.044Z,3.50
2023-05-11T03:24:46.896Z,3.20
2023-05-11T03:27:18.849Z,3.50
2023-05-11T03:29:49.459Z,2.97
2023-05-11T03:32:19.294Z,4.45
2023-05-11T03:34:50.702Z,3.55
2023-05-11T03:37:21.902Z,3.60
2023-05-11T03:39:56.617Z,2.97
2023-05-11T03:42:27.900Z,2.72
2023-05-11T03:45:00.289Z,3.55
2023-05-11T03:47:31.013Z,4.13
2023-05-11T03:50:00.804Z,2.58
2023-05-11T03:52:31.231Z,3.10
2023-05-11T03:55:00.462Z,2.80
2023-05-11T03:57:30.159Z,3.08
2023-05-11T03:59:59.423Z,2.88
2023-05-11T04:02:28.628Z,2.95
2023-05-11T04:04:59.019Z,2.78
2023-05-11T04:07:28.419Z,2.75
2023-05-11T04:09:57.170Z,2.85
2023-05-11T04:12:27.042Z,2.90
2023-05-11T04:14:56.226Z,3.30
2023-05-11T04:17:25.222Z,3.35
2023-05-11T04:19:54.475Z,2.78
2023-05-11T04:22:24.456Z,3.47
2023-05-11T04:24:53.026Z,4.80
2023-05-11T04:27:21.390Z,2.72
2023-05-11T04:29:50.993Z,2.65
2023-05-11T04:32:19.876Z,3.72
2023-05-11T04:34:49.125Z,2.92
2023-05-11T04:37:21.520Z,3.08
2023-05-11T04:39:51.557Z,4.78
2023-05-11T04:42:21.071Z,3.88
2023-05-11T04:44:56.341Z,3.38
2023-05-11T04:47:25.471Z,2.75
2023-05-11T04:49:55.121Z,3.17
2023-05-11T04:52:24.777Z,2.65
2023-05-11T04:54:53.648Z,3.38
2023-05-11T04:57:23.262Z,3.03
2023-05-11T04:59:52.351Z,3.92
2023-05-11T05:02:21.183Z,4.35
2023-05-11T05:04:50.783Z,2.92
2023-05-11T05:07:20.128Z,3.03
2023-05-11T05:09:49.425Z,3.60
2023-05-11T05:12:19.704Z,2.47
2023-05-11T05:14:48.758Z,2.88
2023-05-11T05:17:18.812Z,2.53
2023-05-11T05:19:47.829Z,3.20
2023-05-11T05:22:17.843Z,2.90
2023-05-11T05:24:48.374Z,4.25
2023-05-11T05:27:18.185Z,2.85
2023-05-11T05:29:47.767Z,2.60
2023-05-11T05:32:17.944Z,2.80
2023-05-11T05:34:50.970Z,3.10
2023-05-11T05:37:20.001Z,2.95
2023-05-11T05:39:49.473Z,2.42
2023-05-11T05:42:18.593Z,2.97
2023-05-11T05:44:49.950Z,2.83
2023-05-11T05:47:20.007Z,2.90
2023-05-11T05:49:49.108Z,2.72
2023-05-11T05:52:17.601Z,4.10
2023-05-11T05:54:48.507Z,3.88
2023-05-11T05:57:17.969Z,4.40
2023-05-11T05:59:48.044Z,3.55
2023-05-11T06:02:19.829Z,4.10
2023-05-11T06:04:49.142Z,3.15
2023-05-11T06:07:17.994Z,3.35
2023-05-11T06:09:47.497Z,4.00
2023-05-11T06:12:18.008Z,3.70
2023-05-11T06:14:49.676Z,3.28
2023-05-11T06:17:19.304Z,3.42
2023-05-11T06:19:49.038Z,3.83
2023-05-11T06:22:21.391Z,3.10
2023-05-11T06:24:51.109Z,3.10
2023-05-11T06:27:21.634Z,4.03
2023-05-11T06:29:53.282Z,3.50
2023-05-11T06:32:22.902Z,3.35
2023-05-11T06:34:52.022Z,3.58
2023-05-11T06:37:21.915Z,3.65
2023-05-11T06:39:53.116Z,3.10
2023-05-11T06:42:26.048Z,3.08
2023-05-11T06:45:06.750Z,3.42
2023-05-11T06:47:37.434Z,3.13
2023-05-11T06:50:07.163Z,3.50
2023-05-11T06:52:39.509Z,3.20
2023-05-11T06:55:08.821Z,3.95
2023-05-11T06:57:37.360Z,3.03
2023-05-11T07:00:08.785Z,5.28
2023-05-11T07:02:37.694Z,4.05
2023-05-11T07:05:07.419Z,2.92
2023-05-11T07:07:36.530Z,2.53
2023-05-11T07:10:07.056Z,3.35
2023-05-11T07:12:36.836Z,3.20
2023-05-11T07:15:05.611Z,2.88
2023-05-11T07:17:35.063Z,3.05
2023-05-11T07:20:04.712Z,3.30
2023-05-11T07:22:34.512Z,2.45
2023-05-11T07:25:04.215Z,3.90
2023-05-11T07:27:35.626Z,2.60
2023-05-11T07:30:07.374Z,2.80
2023-05-11T07:32:37.243Z,3.00
2023-05-11T07:35:06.362Z,2.63
2023-05-11T07:37:35.617Z,2.50
2023-05-11T07:40:05.206Z,3.10
2023-05-11T07:42:33.718Z,3.00
2023-05-11T07:45:03.569Z,3.20
2023-05-11T07:47:34.465Z,3.08
2023-05-11T07:50:06.187Z,2.70
2023-05-11T07:52:35.692Z,2.80
2023-05-11T07:55:05.211Z,2.72
2023-05-11T07:57:33.600Z,3.38
2023-05-11T08:00:02.619Z,3.83
2023-05-11T08:02:40.935Z,2.45
2023-05-11T08:05:10.017Z,2.95
2023-05-11T08:07:41.514Z,2.50
2023-05-11T08:10:11.665Z,3.60
2023-05-11T08:12:40.695Z,3.33
2023-05-11T08:15:10.726Z,3.80
2023-05-11T08:17:39.873Z,3.05
2023-05-11T08:20:09.664Z,3.17
2023-05-11T08:22:39.531Z,3.45
2023-05-11T08:25:09.561Z,3.05
2023-05-11T08:27:39.439Z,3.30
2023-05-11T08:30:11.914Z,3.45
2023-05-11T08:32:54.136Z,3.33
2023-05-11T08:35:27.418Z,2.78
2023-05-11T08:37:56.307Z,3.53
2023-05-11T08:40:28.559Z,2.47
2023-05-11T08:42:57.879Z,2.92
2023-05-11T08:45:28.644Z,2.65
2023-05-11T08:47:57.718Z,2.47
2023-05-11T08:50:27.380Z,3.85
2023-05-11T08:52:56.850Z,2.60
2023-05-11T08:55:28.406Z,2.70
2023-05-11T08:57:59.781Z,2.90
2023-05-11T09:00:29.853Z,2.70
2023-05-11T09:03:00.311Z,2.95
2023-05-11T09:05:29.469Z,3.13
2023-05-11T09:08:04.868Z,2.38
2023-05-11T09:10:34.112Z,2.45
2023-05-11T09:13:03.499Z,3.45
2023-05-11T09:15:37.071Z,2.05
2023-05-11T09:18:07.153Z,2.22
2023-05-11T09:20:36.306Z,2.47
2023-05-11T09:23:06.038Z,2.83
2023-05-11T09:25:35.864Z,3.20
2023-05-11T09:28:04.617Z,2.72
2023-05-11T09:30:35.370Z,2.72
2023-05-11T09:33:04.905Z,2.47
2023-05-11T09:35:37.176Z,2.72
2023-05-11T09:38:09.153Z,3.35
2023-05-11T09:40:51.610Z,2.55
2023-05-11T09:43:29.000Z,2.72
2023-05-11T09:46:05.565Z,3.25
2023-05-11T09:48:36.428Z,2.38
2023-05-11T09:51:09.477Z,2.78
2023-05-11T09:53:43.943Z,2.80
2023-05-11T09:56:16.108Z,2.25
2023-05-11T09:58:57.849Z,2.60
2023-05-11T10:01:33.000Z,2.38
2023-05-11T10:04:17.774Z,2.42
2023-05-11T10:06:55.770Z,2.25
2023-05-11T10:09:29.084Z,2.53
2023-05-11T10:11:57.669Z,2.60
2023-05-11T10:14:30.149Z,2.35
2023-05-11T10:17:02.361Z,2.60
2023-05-11T10:19:32.715Z,2.50
2023-05-11T10:22:02.782Z,2.38
2023-05-11T10:24:33.453Z,2.28
2023-05-11T10:27:03.305Z,2.83
2023-05-11T10:29:33.959Z,2.50
2023-05-11T10:32:04.871Z,2.65
2023-05-11T10:34:35.186Z,3.30
2023-05-11T10:37:05.078Z,2.78
2023-05-11T10:39:38.164Z,2.70
2023-05-11T10:42:21.248Z,2.63
2023-05-11T10:45:16.075Z,2.85
2023-05-11T10:48:14.362Z,2.35
2023-05-11T10:50:43.763Z,2.20
2023-05-11T10:53:42.149Z,2.38
2023-05-11T10:56:46.570Z,2.33
2023-05-11T10:59:53.077Z,2.55
2023-05-11T11:02:23.157Z,2.50
2023-05-11T11:04:53.697Z,2.80
2023-05-11T11:07:23.060Z,2.70
2023-05-11T11:10:01.000Z,2.53
2023-05-11T11:12:30.294Z,2.85
2023-05-11T11:15:08.466Z,2.95
2023-05-11T11:17:37.640Z,2.38
2023-05-11T11:20:09.242Z,2.80
2023-05-11T11:22:42.189Z,2.78
2023-05-11T11:25:13.915Z,4.15
2023-05-11T11:27:47.376Z,2.78
2023-05-11T11:30:24.068Z,2.72
2023-05-11T11:32:55.918Z,2.40
2023-05-11T11:35:42.838Z,3.08
2023-05-11T11:38:20.598Z,2.50
2023-05-11T11:40:53.282Z,3.17
2023-05-11T11:43:31.637Z,2.45
2023-05-11T11:46:02.221Z,4.15
2023-05-11T11:48:36.601Z,2.80
2023-05-11T11:51:09.337Z,3.25
2023-05-11T11:53:39.506Z,2.40
2023-05-11T11:56:17.715Z,3.17
2023-05-11T11:58:47.056Z,3.08
2023-05-11T12:01:18.173Z,3.47
2023-05-11T12:03:55.305Z,3.38
2023-05-11T12:06:33.339Z,2.97
2023-05-11T12:09:01.770Z,3.15
2023-05-11T12:11:31.420Z,2.63
2023-05-11T12:14:01.764Z,3.20
2023-05-11T12:16:33.220Z,2.85
2023-05-11T12:19:02.401Z,2.58
2023-05-11T12:21:33.669Z,3.00
2023-05-11T12:24:04.902Z,2.90
2023-05-11T12:26:35.627Z,5.40
2023-05-11T12:29:13.865Z,3.92
2023-05-11T12:31:47.608Z,3.28
2023-05-11T12:34:20.128Z,2.65
2023-05-11T12:36:51.054Z,2.92
2023-05-11T12:39:25.192Z,2.67
2023-05-11T12:41:57.375Z,3.60
2023-05-11T12:44:27.788Z,3.28
2023-05-11T12:46:57.324Z,3.85
2023-05-11T12:49:29.531Z,2.75
2023-05-11T12:52:12.977Z,2.85
2023-05-11T12:54:54.475Z,3.90
2023-05-11T12:57:29.419Z,3.55
2023-05-11T13:00:18.113Z,3.78
2023-05-11T13:02:59.656Z,3.42
2023-05-11T13:05:41.682Z,3.35
2023-05-11T13:08:18.656Z,3.13
2023-05-11T13:11:24.207Z,3.50
2023-05-11T13:13:54.819Z,4.60
2023-05-11T13:16:36.763Z,3.55
2023-05-11T13:19:07.084Z,5.72
2023-05-11T13:21:35.578Z,4.70
2023-05-11T13:24:05.347Z,3.65
2023-05-11T13:26:34.853Z,3.20
2023-05-11T13:29:10.887Z,3.28
2023-05-11T13:31:53.361Z,2.95
2023-05-11T13:34:23.380Z,4.03
2023-05-11T13:36:51.918Z,3.13
2023-05-11T13:39:20.881Z,3.10
2023-05-11T13:41:49.618Z,3.08
2023-05-11T13:44:18.218Z,4.63
2023-05-11T13:46:47.723Z,4.63
2023-05-11T13:49:17.684Z,3.97
2023-05-11T13:51:46.795Z,5.00
2023-05-11T13:54:17.571Z,3.97
2023-05-11T13:56:48.030Z,3.58
2023-05-11T13:59:17.505Z,7.25
2023-05-11T14:01:47.369Z,3.42
2023-05-11T14:04:17.745Z,4.47
2023-05-11T14:06:47.729Z,3.55
2023-05-11T14:09:18.825Z,2.97
2023-05-11T14:11:47.825Z,2.72
2023-05-11T14:14:17.847Z,3.88
2023-05-11T14:16:47.317Z,3.75
2023-05-11T14:19:18.245Z,4.85
2023-05-11T14:21:49.192Z,4.05
2023-05-11T14:24:18.030Z,3.17
2023-05-11T14:26:47.992Z,3.20
2023-05-11T14:29:18.059Z,3.50
2023-05-11T14:31:48.709Z,2.90
2023-05-11T14:34:18.428Z,3.05
2023-05-11T14:36:48.462Z,3.35
2023-05-11T14:39:17.900Z,2.53
2023-05-11T14:41:47.346Z,3.50
2023-05-11T14:44:17.928Z,3.25
2023-05-11T14:46:47.635Z,2.65
2023-05-11T14:49:17.270Z,3.78
2023-05-11T14:51:47.153Z,3.90
2023-05-11T14:54:17.490Z,3.97
2023-05-11T14:56:52.651Z,2.53
2023-05-11T14:59:22.890Z,2.70
2023-05-11T15:01:52.713Z,3.20
2023-05-11T15:04:21.799Z,3.40
2023-05-11T15:06:51.692Z,5.63
2023-05-11T15:09:21.760Z,2.60
2023-05-11T15:11:50.512Z,2.50
2023-05-11T15:14:19.636Z,3.00
2023-05-11T15:16:48.558Z,2.80
2023-05-11T15:19:18.283Z,2.83
2023-05-11T15:21:48.018Z,2.70
2023-05-11T15:24:18.067Z,3.15
2023-05-11T15:26:48.177Z,3.35
2023-05-11T15:29:18.572Z,3.10
2023-05-11T15:31:49.727Z,2.72
2023-05-11T15:34:19.659Z,2.92
2023-05-11T15:36:50.219Z,3.78
2023-05-11T15:39:20.849Z,5.30
2023-05-11T15:41:50.153Z,3.03
2023-05-11T15:44:19.237Z,3.03
2023-05-11T15:46:49.294Z,2.83
2023-05-11T15:49:18.049Z,2.90
2023-05-11T15:51:48.356Z,2.85
2023-05-11T15:54:18.043Z,3.03
2023-05-11T15:56:47.882Z,3.22
2023-05-11T15:59:17.920Z,3.30
2023-05-11T16:01:48.097Z,3.13
2023-05-11T16:04:18.204Z,2.55
2023-05-11T16:06:50.261Z,2.85
2023-05-11T16:09:19.864Z,3.05
2023-05-11T16:11:49.801Z,2.70
2023-05-11T16:14:19.966Z,2.42
2023-05-11T16:16:49.809Z,2.90
2023-05-11T16:19:19.501Z,3.92
2023-05-11T16:21:49.264Z,3.58
2023-05-11T16:24:18.021Z,3.10
2023-05-11T16:26:51.037Z,2.75
2023-05-11T16:29:20.736Z,2.88
2023-05-11T16:31:50.472Z,3.05
2023-05-11T16:34:20.663Z,2.65
2023-05-11T16:36:50.133Z,3.10
2023-05-11T16:39:19.790Z,2.67
2023-05-11T16:41:48.784Z,3.90
2023-05-11T16:44:18.326Z,2.83
2023-05-11T16:46:49.694Z,2.40
2023-05-11T16:49:20.853Z,4.13
2023-05-11T16:51:51.261Z,4.22
2023-05-11T16:54:20.665Z,2.88
2023-05-11T16:56:50.028Z,3.58
2023-05-11T16:59:20.819Z,3.22
2023-05-11T17:01:50.111Z,4.35
2023-05-11T17:04:19.468Z,3.80
2023-05-11T17:06:49.265Z,8.65
2023-05-11T17:09:18.356Z,3.10
2023-05-11T17:11:48.192Z,4.80
2023-05-11T17:14:17.437Z,2.63
2023-05-11T17:16:46.677Z,5.28
2023-05-11T17:19:21.192Z,6.47
2023-05-11T17:21:56.379Z,4.53
2023-05-11T17:24:25.179Z,3.53
2023-05-11T17:26:53.869Z,7.45
2023-05-11T17:29:23.591Z,5.43
2023-05-11T17:31:52.809Z,3.03
2023-05-11T17:34:23.737Z,2.85
2023-05-11T17:36:55.649Z,4.68
2023-05-11T17:39:24.237Z,3.65
2023-05-11T17:41:53.862Z,3.00
2023-05-11T17:44:23.803Z,4.93
2023-05-11T17:46:52.791Z,3.28
2023-05-11T17:49:21.923Z,3.10
2023-05-11T17:51:51.543Z,4.35
2023-05-11T17:54:20.174Z,2.95
2023-05-11T17:56:49.932Z,3.65
2023-05-11T17:59:21.029Z,2.92
2023-05-11T18:01:50.378Z,3.45
2023-05-11T18:04:20.465Z,3.22
2023-05-11T18:06:50.300Z,3.60
2023-05-11T18:09:21.198Z,3.97
2023-05-11T18:11:49.932Z,3.30
2023-05-11T18:14:18.715Z,3.78
2023-05-11T18:16:49.923Z,3.22
2023-05-11T18:19:18.832Z,4.13
2023-05-11T18:21:49.969Z,3.10
2023-05-11T18:24:20.810Z,3.20
2023-05-11T18:26:50.089Z,3.20
2023-05-11T18:29:21.073Z,3.10
2023-05-11T18:31:50.442Z,3.30
2023-05-11T18:34:21.548Z,4.22
2023-05-11T18:36:51.862Z,3.85
2023-05-11T18:39:22.358Z,4.78
2023-05-11T18:41:51.574Z,4.00
2023-05-11T18:44:20.550Z,5.10
2023-05-11T18:46:49.545Z,4.53
2023-05-11T18:49:18.764Z,4.20
2023-05-11T18:51:48.308Z,4.35
2023-05-11T18:54:17.793Z,5.28
2023-05-11T18:56:47.842Z,5.38
2023-05-11T18:59:17.728Z,6.03
2023-05-11T19:01:48.544Z,7.00
2023-05-11T19:04:20.592Z,6.15
2023-05-11T19:06:49.797Z,5.32
2023-05-11T19:09:18.560Z,6.38
2023-05-11T19:11:49.185Z,6.78
2023-05-11T19:14:18.015Z,9.00
2023-05-11T19:16:48.788Z,6.53
2023-05-11T19:19:18.031Z,6.80
2023-05-11T19:21:49.518Z,7.45
2023-05-11T19:24:18.120Z,9.68
2023-05-11T19:27:02.506Z,9.68
2023-05-11T19:29:34.964Z,8.90
2023-05-11T19:32:04.302Z,9.13
2023-05-11T19:34:34.437Z,9.88
2023-05-11T19:37:04.359Z,10.35
2023-05-11T19:39:33.780Z,8.93
2023-05-11T19:42:03.768Z,6.95
2023-05-11T19:44:33.552Z,7.65
2023-05-11T19:47:03.773Z,9.65
2023-05-11T19:49:32.729Z,9.38
2023-05-11T19:52:02.302Z,10.55
2023-05-11T19:54:31.089Z,10.32
2023-05-11T19:57:00.984Z,11.82
2023-05-11T19:59:33.236Z,9.63
2023-05-11T20:02:04.757Z,10.60
2023-05-11T20:04:34.448Z,10.48
2023-05-11T20:07:03.862Z,9.75
2023-05-11T20:09:32.979Z,9.95
2023-05-11T20:12:02.498Z,8.95
2023-05-11T20:14:32.980Z,9.18
2023-05-11T20:17:02.045Z,9.98
2023-05-11T20:19:31.587Z,9.93
2023-05-11T20:21:59.951Z,9.45
2023-05-11T20:24:29.030Z,9.77
2023-05-11T20:26:58.252Z,10.70
2023-05-11T20:29:28.457Z,9.40
2023-05-11T20:31:58.009Z,10.43
2023-05-11T20:34:28.156Z,10.70
2023-05-11T20:36:57.757Z,10.13
2023-05-11T20:39:26.708Z,10.65
2023-05-11T20:41:59.888Z,11.40
2023-05-11T20:44:29.577Z,11.02
2023-05-11T20:46:58.445Z,12.48
2023-05-11T20:49:38.279Z,13.20
2023-05-11T20:52:09.620Z,12.55
2023-05-11T20:54:39.353Z,15.18
2023-05-11T20:57:09.229Z,12.70
2023-05-11T21:02:09.531Z,12.57
2023-05-11T21:04:39.856Z,13.93
2023-05-11T21:07:09.386Z,14.07
2023-05-11T21:09:37.724Z,13.00
2023-05-11T21:12:06.571Z,12.82
2023-05-11T21:14:35.551Z,13.25
2023-05-11T21:17:04.595Z,13.50
2023-05-11T21:19:33.901Z,12.73
2023-05-11T21:22:03.896Z,13.15
2023-05-11T21:24:33.394Z,14.13
2023-05-11T21:27:10.553Z,12.27
2023-05-11T21:29:59.443Z,12.02
2023-05-11T21:32:30.349Z,13.18
2023-05-11T21:35:02.134Z,12.25
2023-05-11T21:38:16.852Z,12.05
2023-05-11T21:41:03.784Z,12.23
2023-05-11T21:43:54.424Z,11.48
2023-05-11T21:46:42.570Z,11.50
2023-05-11T21:49:17.957Z,12.68
2023-05-11T21:51:48.000Z,13.50
2023-05-11T21:54:17.498Z,12.95
2023-05-11T21:56:48.552Z,14.32
2023-05-11T21:59:18.326Z,12.60
2023-05-11T22:01:50.187Z,14.68
2023-05-11T22:04:21.087Z,13.52
2023-05-11T22:06:50.132Z,15.02
2023-05-11T22:09:18.790Z,13.23
2023-05-11T22:11:48.214Z,14.52
2023-05-11T22:14:21.500Z,14.27
2023-05-11T22:16:50.921Z,12.33
2023-05-11T22:19:22.372Z,13.85
2023-05-11T22:21:51.841Z,13.13
2023-05-11T22:24:22.280Z,12.57
2023-05-11T22:26:53.333Z,12.90
2023-05-11T22:29:22.576Z,13.05
2023-05-11T22:31:52.913Z,12.73
2023-05-11T22:34:22.129Z,11.90
2023-05-11T22:36:51.777Z,10.90
2023-05-11T22:39:21.041Z,10.80
2023-05-11T22:41:50.086Z,12.38
2023-05-11T22:44:19.801Z,10.95
2023-05-11T22:46:49.723Z,13.10
2023-05-11T22:49:19.498Z,11.40
2023-05-11T22:51:49.141Z,10.35
2023-05-11T22:54:18.332Z,12.57
2023-05-11T22:56:47.882Z,10.63
2023-05-11T22:59:17.988Z,11.02
2023-05-11T23:01:47.874Z,11.00
2023-05-11T23:04:17.764Z,12.15
2023-05-11T23:06:47.710Z,11.38
2023-05-11T23:09:17.701Z,13.25
2023-05-11T23:11:49.214Z,11.00
2023-05-11T23:14:17.863Z,12.48
2023-05-11T23:16:47.351Z,12.90
2023-05-11T23:19:16.864Z,12.05
2023-05-11T23:21:48.057Z,11.93
2023-05-11T23:24:17.501Z,13.70
2023-05-11T23:26:52.068Z,12.38
2023-05-11T23:29:21.266Z,12.50
2023-05-11T23:31:51.824Z,12.50
2023-05-11T23:34:20.918Z,15.02
2023-05-11T23:36:50.297Z,14.47
2023-05-11T23:39:18.483Z,14.00
2023-05-11T23:41:47.562Z,14.25
2023-05-11T23:44:18.018Z,12.93
2023-05-11T23:46:47.691Z,13.40
2023-05-11T23:49:17.491Z,13.50
2023-05-11T23:51:47.165Z,12.50
2023-05-11T23:54:17.111Z,12.95
2023-05-11T23:56:47.573Z,13.38
2023-05-11T23:59:16.899Z,13.55
